createdAt,value
2017-06-17T00:00:53.207Z,1020.83
2017-06-17T00:02:03.428Z,1020.8
2017-06-17T00:03:13.104Z,1020.83
2017-06-17T00:04:22.714Z,1020.85
2017-06-17T00:05:32.009Z,1020.9
2017-06-17T00:06:41.918Z,1020.84
2017-06-17T00:07:51.528Z,1020.85
2017-06-17T00:09:01.598Z,1020.89
2017-06-17T00:10:11.518Z,1020.95
2017-06-17T00:11:21.740Z,1020.92
2017-06-17T00:12:31.048Z,1020.9
2017-06-17T00:13:40.960Z,1020.89
2017-06-17T00:14:50.930Z,1020.92
2017-06-17T00:16:00.842Z,1020.94
2017-06-17T00:17:10.443Z,1020.97
2017-06-17T00:18:20.048Z,1020.96
2017-06-17T00:19:29.678Z,1020.98
2017-06-17T00:20:39.774Z,1020.98
2017-06-17T00:21:49.697Z,1020.97
2017-06-17T00:22:59.600Z,1020.98
2017-06-17T00:24:09.513Z,1020.96
2017-06-17T00:25:19.125Z,1020.99
2017-06-17T00:26:29.346Z,1021.03
2017-06-17T00:27:39.569Z,1021.05
2017-06-17T00:28:49.487Z,1021.07
2017-06-17T00:29:59.395Z,1021.04
2017-06-17T00:31:09.299Z,1021.02
2017-06-17T00:32:19.312Z,1021.03
2017-06-17T00:33:28.920Z,1021.04
2017-06-17T00:34:38.533Z,1021
2017-06-17T00:35:48.141Z,1021.03
2017-06-17T00:36:57.743Z,1020.96
2017-06-17T00:38:07.806Z,1021.03
2017-06-17T00:39:17.418Z,1020.97
2017-06-17T00:40:27.029Z,1020.99
2017-06-17T00:41:36.645Z,1020.97
2017-06-17T00:42:46.620Z,1020.98
2017-06-17T00:43:56.997Z,1021.01
2017-06-17T00:45:07.216Z,1021
2017-06-17T00:46:16.513Z,1021
2017-06-17T00:47:26.438Z,1020.97
2017-06-17T00:48:36.346Z,1020.99
2017-06-17T00:49:46.356Z,1020.94
2017-06-17T00:50:55.959Z,1020.99
2017-06-17T00:52:05.857Z,1021.03
2017-06-17T00:53:15.460Z,1021.02
2017-06-17T00:54:25.380Z,1020.99
2017-06-17T00:55:34.837Z,1021.03
2017-06-17T00:56:45.117Z,1021.05
2017-06-17T00:57:55.336Z,1021.06
2017-06-17T00:59:05.262Z,1021.06
2017-06-17T01:00:15.183Z,1021.04
2017-06-17T01:01:24.225Z,1021.06
2017-06-17T01:02:34.135Z,1021.04
2017-06-17T01:03:44.060Z,1021.05
2017-06-17T01:04:54.003Z,1021.08
2017-06-17T01:06:03.916Z,1021.09
2017-06-17T01:07:14.184Z,1021.1
2017-06-17T01:08:24.408Z,1021.07
2017-06-17T01:09:34.359Z,1021.11
2017-06-17T01:10:44.600Z,1021.14
2017-06-17T01:11:54.556Z,1021.12
2017-06-17T01:13:04.223Z,1021.09
2017-06-17T01:14:14.185Z,1021.1
2017-06-17T01:15:23.186Z,1021.1
2017-06-17T01:16:32.806Z,1021.13
2017-06-17T01:17:43.025Z,1021.14
2017-06-17T01:18:52.692Z,1021.12
2017-06-17T01:20:02.903Z,1021.14
2017-06-17T01:21:12.512Z,1021.13
2017-06-17T01:22:22.118Z,1021.09
2017-06-17T01:23:32.344Z,1021.12
2017-06-17T01:24:41.970Z,1021.15
2017-06-17T01:25:51.887Z,1021.09
2017-06-17T01:27:01.805Z,1021.1
2017-06-17T01:28:11.414Z,1021.11
2017-06-17T01:29:21.015Z,1021.12
2017-06-17T01:30:30.623Z,1021.12
2017-06-17T01:31:40.545Z,1021.11
2017-06-17T01:32:50.764Z,1021.16
2017-06-17T01:34:00.997Z,1021.14
2017-06-17T01:35:10.912Z,1021.13
2017-06-17T01:36:20.619Z,1021.15
2017-06-17T01:37:29.611Z,1021.14
2017-06-17T01:38:39.554Z,1021.15
2017-06-17T01:39:49.479Z,1021.15
2017-06-17T01:40:59.412Z,1021.13
2017-06-17T01:42:09.642Z,1021.13
2017-06-17T01:43:19.860Z,1021.12
2017-06-17T01:44:29.769Z,1021.13
2017-06-17T01:45:40.002Z,1021.2
2017-06-17T01:46:49.915Z,1021.18
2017-06-17T01:48:00.130Z,1021.17
2017-06-17T01:49:10.347Z,1021.14
2017-06-17T01:50:20.563Z,1021.13
2017-06-17T01:51:30.492Z,1021.1
2017-06-17T01:52:40.709Z,1021.08
2017-06-17T01:53:50.763Z,1021.1
2017-06-17T01:55:00.985Z,1021.1
2017-06-17T01:56:11.212Z,1021.09
2017-06-17T01:57:21.467Z,1021.1
2017-06-17T01:58:31.686Z,1021.09
2017-06-17T01:59:41.589Z,1021.07
2017-06-17T02:00:51.506Z,1021.1
2017-06-17T02:02:01.439Z,1021.07
2017-06-17T02:03:11.362Z,1021.09
2017-06-17T02:04:21.604Z,1021.06
2017-06-17T02:05:31.523Z,1021.04
2017-06-17T02:06:41.155Z,1021.03
2017-06-17T02:07:51.087Z,1021.07
2017-06-17T02:09:01.315Z,1021.05
2017-06-17T02:10:11.552Z,1021.05
2017-06-17T02:11:21.324Z,1021.04
2017-06-17T02:12:31.256Z,1021.02
2017-06-17T02:13:41.169Z,1021.05
2017-06-17T02:14:51.395Z,1021.01
2017-06-17T02:16:01.621Z,1021.01
2017-06-17T02:17:11.987Z,1021.01
2017-06-17T02:18:21.897Z,1021
2017-06-17T02:19:31.809Z,1020.98
2017-06-17T02:20:41.725Z,1020.94
2017-06-17T02:21:51.942Z,1020.94
2017-06-17T02:23:02.206Z,1020.93
2017-06-17T02:24:12.119Z,1020.96
2017-06-17T02:25:21.718Z,1020.93
2017-06-17T02:26:31.945Z,1020.93
2017-06-17T02:27:42.171Z,1020.94
2017-06-17T02:28:52.187Z,1020.95
2017-06-17T02:30:02.094Z,1021.03
2017-06-17T02:31:12.314Z,1021.01
2017-06-17T02:32:22.535Z,1021.03
2017-06-17T02:33:32.440Z,1021.04
2017-06-17T02:34:42.810Z,1021.04
2017-06-17T02:35:53.035Z,1021.05
2017-06-17T02:37:02.952Z,1021.02
2017-06-17T02:38:12.869Z,1021.04
2017-06-17T02:39:23.090Z,1021.07
2017-06-17T02:40:33.480Z,1021.05
2017-06-17T02:41:43.117Z,1021.07
2017-06-17T02:42:53.034Z,1021.08
2017-06-17T02:44:02.331Z,1021.09
2017-06-17T02:45:12.242Z,1021.11
2017-06-17T02:46:22.002Z,1021.14
2017-06-17T02:47:31.915Z,1021.15
2017-06-17T02:48:41.532Z,1021.12
2017-06-17T02:49:51.461Z,1021.12
2017-06-17T02:51:01.677Z,1021.1
2017-06-17T02:52:11.125Z,1021.11
2017-06-17T02:53:21.346Z,1021.12
2017-06-17T02:54:31.266Z,1021.08
2017-06-17T02:55:41.475Z,1021.06
2017-06-17T02:56:51.390Z,1021.08
2017-06-17T02:58:01.623Z,1021.12
2017-06-17T02:59:11.850Z,1021.09
2017-06-17T03:00:21.768Z,1021.08
2017-06-17T03:01:31.682Z,1021.11
2017-06-17T03:02:41.609Z,1021.1
2017-06-17T03:03:51.923Z,1021.14
2017-06-17T03:05:02.221Z,1021.12
2017-06-17T03:06:12.127Z,1021.12
2017-06-17T03:07:22.034Z,1021.1
2017-06-17T03:08:32.243Z,1021.1
2017-06-17T03:09:42.310Z,1021.11
2017-06-17T03:10:52.520Z,1021.13
2017-06-17T03:12:02.128Z,1021.16
2017-06-17T03:13:11.740Z,1021.15
2017-06-17T03:14:21.065Z,1021.14
2017-06-17T03:15:31.328Z,1021.12
2017-06-17T03:16:40.928Z,1021.16
2017-06-17T03:17:50.527Z,1021.13
2017-06-17T03:19:00.191Z,1021.13
2017-06-17T03:20:10.103Z,1021.13
2017-06-17T03:21:19.758Z,1021.12
2017-06-17T03:22:29.977Z,1021.12
2017-06-17T03:23:40.188Z,1021.11
2017-06-17T03:24:49.806Z,1021.12
2017-06-17T03:25:59.114Z,1021.12
2017-06-17T03:27:08.868Z,1021.1
2017-06-17T03:28:18.789Z,1021.14
2017-06-17T03:29:28.694Z,1021.1
2017-06-17T03:30:38.644Z,1021.09
2017-06-17T03:31:47.942Z,1021.1
2017-06-17T03:32:57.554Z,1021.1
2017-06-17T03:34:07.476Z,1021.11
2017-06-17T03:35:17.081Z,1021.11
2017-06-17T03:36:26.390Z,1021.12
2017-06-17T03:37:36.304Z,1021.14
2017-06-17T03:38:46.372Z,1021.1
2017-06-17T03:39:55.983Z,1021.11
2017-06-17T03:41:05.898Z,1021.12
2017-06-17T03:42:15.528Z,1021.07
2017-06-17T03:43:25.743Z,1021.07
2017-06-17T03:44:35.674Z,1021.06
2017-06-17T03:45:45.888Z,1021.09
2017-06-17T03:46:55.190Z,1021.11
2017-06-17T03:48:04.787Z,1021.11
2017-06-17T03:49:14.698Z,1021.1
2017-06-17T03:50:24.613Z,1021.1
2017-06-17T03:51:34.523Z,1021.06
2017-06-17T03:52:44.744Z,1021.06
2017-06-17T03:53:54.345Z,1021.06
2017-06-17T03:55:04.259Z,1021.04
2017-06-17T03:56:14.470Z,1021.08
2017-06-17T03:57:24.399Z,1021.07
2017-06-17T03:58:34.306Z,1021.1
2017-06-17T03:59:43.906Z,1021.06
2017-06-17T04:00:53.829Z,1021.05
2017-06-17T04:02:03.302Z,1021.03
2017-06-17T04:03:12.601Z,1021.01
2017-06-17T04:04:22.214Z,1021.04
2017-06-17T04:05:31.816Z,1021.03
2017-06-17T04:06:42.036Z,1021.03
2017-06-17T04:07:52.369Z,1021.01
2017-06-17T04:09:02.308Z,1021.01
2017-06-17T04:10:11.626Z,1021
2017-06-17T04:11:21.852Z,1021.01
2017-06-17T04:12:31.773Z,1021.03
2017-06-17T04:13:41.835Z,1020.99
2017-06-17T04:14:51.764Z,1021.03
2017-06-17T04:16:01.983Z,1021.04
2017-06-17T04:17:12.203Z,1021.03
2017-06-17T04:18:21.824Z,1021.01
2017-06-17T04:19:32.042Z,1021.02
2017-06-17T04:20:42.269Z,1020.98
2017-06-17T04:21:51.871Z,1021.01
2017-06-17T04:23:01.778Z,1021.07
2017-06-17T04:24:12.008Z,1021.08
2017-06-17T04:25:22.261Z,1021.07
2017-06-17T04:26:32.173Z,1021.05
2017-06-17T04:27:42.406Z,1021.04
2017-06-17T04:28:52.625Z,1021
2017-06-17T04:30:02.542Z,1021.03
2017-06-17T04:31:12.470Z,1021.03
2017-06-17T04:32:22.390Z,1021
2017-06-17T04:33:32.301Z,1021.05
2017-06-17T04:34:42.220Z,1021
2017-06-17T04:35:51.819Z,1021.04
2017-06-17T04:37:01.880Z,1021.03
2017-06-17T04:38:12.119Z,1021.03
2017-06-17T04:39:22.031Z,1021.05
2017-06-17T04:40:32.245Z,1021.07
2017-06-17T04:41:41.858Z,1021.06
2017-06-17T04:42:52.133Z,1021.07
2017-06-17T04:44:02.044Z,1021.11
2017-06-17T04:45:11.654Z,1021.15
2017-06-17T04:46:21.567Z,1021.13
2017-06-17T04:47:31.174Z,1021.11
2017-06-17T04:48:41.442Z,1021.15
2017-06-17T04:49:51.355Z,1021.11
2017-06-17T04:51:01.285Z,1021.14
2017-06-17T04:52:11.509Z,1021.16
2017-06-17T04:53:21.126Z,1021.13
2017-06-17T04:54:31.053Z,1021.15
2017-06-17T04:55:41.275Z,1021.17
2017-06-17T04:56:51.186Z,1021.15
2017-06-17T04:58:00.785Z,1021.14
2017-06-17T04:59:10.999Z,1021.15
2017-06-17T05:00:21.266Z,1021.15
2017-06-17T05:01:31.478Z,1021.13
2017-06-17T05:02:41.406Z,1021.15
2017-06-17T05:03:51.629Z,1021.14
2017-06-17T05:05:01.549Z,1021.16
2017-06-17T05:06:11.203Z,1021.18
2017-06-17T05:07:21.430Z,1021.2
2017-06-17T05:08:31.044Z,1021.17
2017-06-17T05:09:40.949Z,1021.15
2017-06-17T05:10:51.165Z,1021.16
2017-06-17T05:12:01.234Z,1021.18
2017-06-17T05:13:11.454Z,1021.18
2017-06-17T05:14:21.075Z,1021.19
2017-06-17T05:15:31.295Z,1021.19
2017-06-17T05:16:41.199Z,1021.19
2017-06-17T05:17:51.113Z,1021.19
2017-06-17T05:19:01.330Z,1021.16
2017-06-17T05:20:10.941Z,1021.16
2017-06-17T05:21:20.547Z,1021.15
2017-06-17T05:22:29.563Z,1021.15
2017-06-17T05:23:39.625Z,1021.2
2017-06-17T05:24:49.543Z,1021.18
2017-06-17T05:25:59.458Z,1021.19
2017-06-17T05:27:09.378Z,1021.16
2017-06-17T05:28:18.983Z,1021.13
2017-06-17T05:29:29.554Z,1021.15
2017-06-17T05:30:39.774Z,1021.15
2017-06-17T05:31:49.995Z,1021.16
2017-06-17T05:32:59.918Z,1021.16
2017-06-17T05:34:09.828Z,1021.11
2017-06-17T05:35:20.100Z,1021.08
2017-06-17T05:36:29.727Z,1021.08
2017-06-17T05:37:39.336Z,1021.12
2017-06-17T05:38:49.247Z,1021.13
2017-06-17T05:39:59.483Z,1021.14
2017-06-17T05:41:09.827Z,1021.16
2017-06-17T05:42:20.059Z,1021.15
2017-06-17T05:43:29.673Z,1021.18
2017-06-17T05:44:39.593Z,1021.15
2017-06-17T05:45:49.212Z,1021.15
2017-06-17T05:46:59.476Z,1021.09
2017-06-17T05:48:09.391Z,1021.18
2017-06-17T05:49:19.614Z,1021.1
2017-06-17T05:50:29.516Z,1021.17
2017-06-17T05:51:39.752Z,1021.14
2017-06-17T05:52:49.414Z,1021.2
2017-06-17T05:53:59.646Z,1021.23
2017-06-17T05:55:09.276Z,1021.2
2017-06-17T05:56:19.198Z,1021.24
2017-06-17T05:57:29.112Z,1021.24
2017-06-17T05:58:39.350Z,1021.28
2017-06-17T05:59:48.639Z,1021.25
2017-06-17T06:00:58.858Z,1021.23
2017-06-17T06:02:08.765Z,1021.28
2017-06-17T06:03:18.678Z,1021.25
2017-06-17T06:04:29.052Z,1021.28
2017-06-17T06:05:38.967Z,1021.31
2017-06-17T06:06:48.894Z,1021.3
2017-06-17T06:07:58.817Z,1021.32
2017-06-17T06:09:09.034Z,1021.31
2017-06-17T06:10:19.245Z,1021.36
2017-06-17T06:11:28.563Z,1021.35
2017-06-17T06:12:38.478Z,1021.39
2017-06-17T06:13:48.398Z,1021.4
2017-06-17T06:14:58.307Z,1021.41
2017-06-17T06:16:07.658Z,1021.41
2017-06-17T06:17:17.568Z,1021.4
2017-06-17T06:18:26.870Z,1021.44
2017-06-17T06:19:36.471Z,1021.37
2017-06-17T06:20:46.382Z,1021.41
2017-06-17T06:21:56.648Z,1021.42
2017-06-17T06:23:06.260Z,1021.41
2017-06-17T06:24:15.549Z,1021.39
2017-06-17T06:25:25.469Z,1021.39
2017-06-17T06:26:35.377Z,1021.45
2017-06-17T06:27:45.330Z,1021.44
2017-06-17T06:28:55.240Z,1021.47
2017-06-17T06:30:04.834Z,1021.51
2017-06-17T06:31:14.748Z,1021.5
2017-06-17T06:32:24.670Z,1021.53
2017-06-17T06:33:34.733Z,1021.52
2017-06-17T06:34:44.360Z,1021.55
2017-06-17T06:35:53.974Z,1021.53
2017-06-17T06:37:03.279Z,1021.51
2017-06-17T06:38:12.877Z,1021.51
2017-06-17T06:39:22.673Z,1021.51
2017-06-17T06:40:32.914Z,1021.51
2017-06-17T06:41:42.219Z,1021.53
2017-06-17T06:42:51.821Z,1021.54
2017-06-17T06:44:01.114Z,1021.57
2017-06-17T06:45:11.082Z,1021.53
2017-06-17T06:46:20.702Z,1021.56
2017-06-17T06:47:30.929Z,1021.55
2017-06-17T06:48:41.148Z,1021.57
2017-06-17T06:49:51.075Z,1021.58
2017-06-17T06:51:01.356Z,1021.61
2017-06-17T06:52:10.965Z,1021.59
2017-06-17T06:53:20.272Z,1021.57
2017-06-17T06:54:30.498Z,1021.61
2017-06-17T06:55:40.109Z,1021.63
2017-06-17T06:56:49.567Z,1021.62
2017-06-17T06:57:58.879Z,1021.64
2017-06-17T06:59:08.795Z,1021.63
2017-06-17T07:00:18.403Z,1021.69
2017-06-17T07:01:28.320Z,1021.66
2017-06-17T07:02:38.405Z,1021.66
2017-06-17T07:03:48.007Z,1021.66
2017-06-17T07:04:58.236Z,1021.7
2017-06-17T07:06:08.155Z,1021.71
2017-06-17T07:07:18.062Z,1021.71
2017-06-17T07:08:28.136Z,1021.73
2017-06-17T07:09:37.734Z,1021.74
2017-06-17T07:10:47.653Z,1021.76
2017-06-17T07:11:57.874Z,1021.75
2017-06-17T07:13:07.787Z,1021.71
2017-06-17T07:14:17.748Z,1021.72
2017-06-17T07:15:27.980Z,1021.72
2017-06-17T07:16:37.892Z,1021.74
2017-06-17T07:17:48.120Z,1021.72
2017-06-17T07:18:57.107Z,1021.75
2017-06-17T07:20:07.118Z,1021.76
2017-06-17T07:21:17.035Z,1021.77
2017-06-17T07:22:26.946Z,1021.76
2017-06-17T07:23:36.252Z,1021.75
2017-06-17T07:24:46.165Z,1021.73
2017-06-17T07:25:56.403Z,1021.67
2017-06-17T07:27:06.032Z,1021.75
2017-06-17T07:28:15.357Z,1021.77
2017-06-17T07:29:24.976Z,1021.75
2017-06-17T07:30:34.272Z,1021.74
2017-06-17T07:31:44.645Z,1021.73
2017-06-17T07:32:54.573Z,1021.7
2017-06-17T07:34:04.492Z,1021.7
2017-06-17T07:35:14.401Z,1021.68
2017-06-17T07:36:24.623Z,1021.62
2017-06-17T07:37:34.630Z,1021.58
2017-06-17T07:38:44.254Z,1021.57
2017-06-17T07:39:54.169Z,1021.55
2017-06-17T07:41:03.481Z,1021.54
2017-06-17T07:42:12.798Z,1021.54
2017-06-17T07:43:22.754Z,1021.53
2017-06-17T07:44:32.981Z,1021.57
2017-06-17T07:45:42.901Z,1021.57
2017-06-17T07:46:53.118Z,1021.58
2017-06-17T07:48:03.331Z,1021.61
2017-06-17T07:49:13.860Z,1021.61
2017-06-17T07:50:23.777Z,1021.59
2017-06-17T07:51:33.686Z,1021.58
2017-06-17T07:52:43.605Z,1021.56
2017-06-17T07:53:53.823Z,1021.51
2017-06-17T07:55:04.040Z,1021.56
2017-06-17T07:56:13.955Z,1021.52
2017-06-17T07:57:23.600Z,1021.58
2017-06-17T07:58:33.517Z,1021.59
2017-06-17T07:59:43.738Z,1021.55
2017-06-17T08:00:54.004Z,1021.57
2017-06-17T08:02:03.616Z,1021.59
2017-06-17T08:03:13.841Z,1021.57
2017-06-17T08:04:23.758Z,1021.59
2017-06-17T08:05:33.682Z,1021.56
2017-06-17T08:06:43.469Z,1021.54
2017-06-17T08:07:53.529Z,1021.54
2017-06-17T08:09:03.448Z,1021.52
2017-06-17T08:10:13.385Z,1021.52
2017-06-17T08:11:23.022Z,1021.49
2017-06-17T08:12:32.962Z,1021.48
2017-06-17T08:13:43.208Z,1021.49
2017-06-17T08:14:53.424Z,1021.47
2017-06-17T08:16:03.335Z,1021.45
2017-06-17T08:17:13.256Z,1021.48
2017-06-17T08:18:22.967Z,1021.52
2017-06-17T08:19:33.237Z,1021.52
2017-06-17T08:20:43.194Z,1021.5
2017-06-17T08:21:52.844Z,1021.47
2017-06-17T08:23:02.786Z,1021.46
2017-06-17T08:24:13.437Z,1021.42
2017-06-17T08:25:23.374Z,1021.45
2017-06-17T08:26:33.340Z,1021.43
2017-06-17T08:27:42.986Z,1021.46
2017-06-17T08:28:52.628Z,1021.47
2017-06-17T08:30:02.247Z,1021.47
2017-06-17T08:31:12.183Z,1021.48
2017-06-17T08:32:22.468Z,1021.47
2017-06-17T08:33:32.408Z,1021.51
2017-06-17T08:34:41.462Z,1021.48
2017-06-17T08:35:51.549Z,1021.51
2017-06-17T08:37:01.802Z,1021.48
2017-06-17T08:38:11.755Z,1021.53
2017-06-17T08:39:21.386Z,1021.5
2017-06-17T08:40:31.622Z,1021.56
2017-06-17T08:41:41.071Z,1021.55
2017-06-17T08:42:51.026Z,1021.53
2017-06-17T08:44:00.693Z,1021.51
2017-06-17T08:45:10.327Z,1021.5
2017-06-17T08:46:20.266Z,1021.47
2017-06-17T08:47:30.043Z,1021.51
2017-06-17T08:48:40.278Z,1021.45
2017-06-17T08:49:50.519Z,1021.48
2017-06-17T08:51:00.440Z,1021.45
2017-06-17T08:52:10.351Z,1021.46
2017-06-17T08:53:20.152Z,1021.45
2017-06-17T08:54:30.401Z,1021.44
2017-06-17T08:55:40.009Z,1021.45
2017-06-17T08:56:49.932Z,1021.45
2017-06-17T08:57:59.845Z,1021.46
2017-06-17T08:59:09.289Z,1021.46
2017-06-17T09:00:18.901Z,1021.5
2017-06-17T09:01:29.131Z,1021.48
2017-06-17T09:02:39.359Z,1021.5
2017-06-17T09:03:48.982Z,1021.49
2017-06-17T09:04:58.657Z,1021.44
2017-06-17T09:06:08.583Z,1021.45
2017-06-17T09:07:18.819Z,1021.46
2017-06-17T09:08:28.461Z,1021.48
2017-06-17T09:09:38.698Z,1021.48
2017-06-17T09:10:49.282Z,1021.5
2017-06-17T09:11:58.586Z,1021.53
2017-06-17T09:13:08.196Z,1021.5
2017-06-17T09:14:17.816Z,1021.49
2017-06-17T09:15:27.748Z,1021.5
2017-06-17T09:16:37.664Z,1021.46
2017-06-17T09:17:47.903Z,1021.44
2017-06-17T09:18:57.227Z,1021.45
2017-06-17T09:20:07.140Z,1021.48
2017-06-17T09:21:17.059Z,1021.46
2017-06-17T09:22:27.439Z,1021.45
2017-06-17T09:23:37.382Z,1021.49
2017-06-17T09:24:46.992Z,1021.43
2017-06-17T09:25:55.990Z,1021.45
2017-06-17T09:27:05.904Z,1021.44
2017-06-17T09:28:15.972Z,1021.42
2017-06-17T09:29:26.206Z,1021.43
2017-06-17T09:30:35.829Z,1021.45
2017-06-17T09:31:45.739Z,1021.47
2017-06-17T09:32:55.356Z,1021.46
2017-06-17T09:34:04.525Z,1021.48
2017-06-17T09:35:14.428Z,1021.45
2017-06-17T09:36:24.367Z,1021.44
2017-06-17T09:37:34.278Z,1021.46
2017-06-17T09:38:43.920Z,1021.48
2017-06-17T09:39:53.876Z,1021.47
2017-06-17T09:41:03.806Z,1021.48
2017-06-17T09:42:13.717Z,1021.49
2017-06-17T09:43:23.642Z,1021.48
2017-06-17T09:44:33.868Z,1021.47
2017-06-17T09:45:43.783Z,1021.49
2017-06-17T09:46:53.696Z,1021.51
2017-06-17T09:48:03.666Z,1021.49
2017-06-17T09:49:13.897Z,1021.5
2017-06-17T09:50:23.820Z,1021.51
2017-06-17T09:51:34.034Z,1021.49
2017-06-17T09:52:44.261Z,1021.5
2017-06-17T09:53:54.207Z,1021.5
2017-06-17T09:55:04.120Z,1021.47
2017-06-17T09:56:14.032Z,1021.5
2017-06-17T09:57:23.382Z,1021.48
2017-06-17T09:58:33.301Z,1021.5
2017-06-17T09:59:42.910Z,1021.52
2017-06-17T10:00:52.829Z,1021.5
2017-06-17T10:02:02.441Z,1021.5
2017-06-17T10:03:12.501Z,1021.53
2017-06-17T10:04:22.437Z,1021.51
2017-06-17T10:05:32.351Z,1021.51
2017-06-17T10:06:42.573Z,1021.49
2017-06-17T10:07:52.804Z,1021.47
2017-06-17T10:09:02.763Z,1021.43
2017-06-17T10:10:12.680Z,1021.46
2017-06-17T10:11:22.287Z,1021.47
2017-06-17T10:12:32.213Z,1021.48
2017-06-17T10:13:42.127Z,1021.47
2017-06-17T10:14:51.583Z,1021.46
2017-06-17T10:16:01.799Z,1021.5
2017-06-17T10:17:11.725Z,1021.49
2017-06-17T10:18:21.947Z,1021.43
2017-06-17T10:19:32.168Z,1021.45
2017-06-17T10:20:42.235Z,1021.45
2017-06-17T10:21:52.155Z,1021.46
2017-06-17T10:23:02.075Z,1021.48
2017-06-17T10:24:11.417Z,1021.45
2017-06-17T10:25:21.036Z,1021.45
2017-06-17T10:26:31.255Z,1021.44
2017-06-17T10:27:41.487Z,1021.46
2017-06-17T10:28:51.124Z,1021.4
2017-06-17T10:30:01.066Z,1021.41
2017-06-17T10:31:11.004Z,1021.41
2017-06-17T10:32:21.352Z,1021.41
2017-06-17T10:33:30.969Z,1021.43
2017-06-17T10:34:40.589Z,1021.42
2017-06-17T10:35:49.902Z,1021.42
2017-06-17T10:36:59.836Z,1021.41
2017-06-17T10:38:09.241Z,1021.43
2017-06-17T10:39:18.869Z,1021.43
2017-06-17T10:40:28.215Z,1021.45
2017-06-17T10:41:37.835Z,1021.47
2017-06-17T10:42:47.765Z,1021.46
2017-06-17T10:43:57.992Z,1021.38
2017-06-17T10:45:07.918Z,1021.39
2017-06-17T10:46:17.834Z,1021.39
2017-06-17T10:47:28.054Z,1021.38
2017-06-17T10:48:38.272Z,1021.41
2017-06-17T10:49:47.948Z,1021.45
2017-06-17T10:50:57.559Z,1021.4
2017-06-17T10:52:07.492Z,1021.41
2017-06-17T10:53:17.429Z,1021.39
2017-06-17T10:54:27.356Z,1021.42
2017-06-17T10:55:37.342Z,1021.37
2017-06-17T10:56:47.300Z,1021.37
2017-06-17T10:57:57.217Z,1021.36
2017-06-17T10:59:07.445Z,1021.39
2017-06-17T11:00:17.049Z,1021.32
2017-06-17T11:01:27.127Z,1021.36
2017-06-17T11:02:37.066Z,1021.33
2017-06-17T11:03:46.665Z,1021.34
2017-06-17T11:04:56.574Z,1021.25
2017-06-17T11:06:06.818Z,1021.29
2017-06-17T11:07:17.339Z,1021.25
2017-06-17T11:08:27.266Z,1021.22
2017-06-17T11:09:37.493Z,1021.27
2017-06-17T11:10:47.718Z,1021.26
2017-06-17T11:11:57.639Z,1021.24
2017-06-17T11:13:07.714Z,1021.25
2017-06-17T11:14:17.678Z,1021.24
2017-06-17T11:15:27.285Z,1021.19
2017-06-17T11:16:37.504Z,1021.27
2017-06-17T11:17:47.424Z,1021.29
2017-06-17T11:18:56.736Z,1021.31
2017-06-17T11:20:06.662Z,1021.24
2017-06-17T11:21:16.876Z,1021.28
2017-06-17T11:22:27.103Z,1021.25
2017-06-17T11:23:36.129Z,1021.24
2017-06-17T11:24:46.124Z,1021.33
2017-06-17T11:25:55.744Z,1021.29
2017-06-17T11:27:05.357Z,1021.24
2017-06-17T11:28:15.586Z,1021.26
2017-06-17T11:29:25.497Z,1021.26
2017-06-17T11:30:35.447Z,1021.23
2017-06-17T11:31:45.379Z,1021.3
2017-06-17T11:32:55.300Z,1021.33
2017-06-17T11:34:05.769Z,1021.29
2017-06-17T11:35:15.379Z,1021.32
2017-06-17T11:36:25.405Z,1021.3
2017-06-17T11:37:35.035Z,1021.24
2017-06-17T11:38:44.367Z,1021.28
2017-06-17T11:39:54.594Z,1021.27
2017-06-17T11:41:04.526Z,1021.29
2017-06-17T11:42:14.303Z,1021.33
2017-06-17T11:43:24.552Z,1021.29
2017-06-17T11:44:34.470Z,1021.3
2017-06-17T11:45:43.788Z,1021.29
2017-06-17T11:46:53.709Z,1021.28
2017-06-17T11:48:03.935Z,1021.23
2017-06-17T11:49:13.847Z,1021.26
2017-06-17T11:50:23.759Z,1021.25
2017-06-17T11:51:33.975Z,1021.24
2017-06-17T11:52:44.198Z,1021.28
2017-06-17T11:53:54.544Z,1021.25
2017-06-17T11:55:04.475Z,1021.26
2017-06-17T11:56:13.477Z,1021.22
2017-06-17T11:57:23.407Z,1021.27
2017-06-17T11:58:33.319Z,1021.2
2017-06-17T11:59:43.709Z,1021.25
2017-06-17T12:00:53.632Z,1021.18
2017-06-17T12:02:03.241Z,1021.26
2017-06-17T12:03:13.683Z,1021.27
2017-06-17T12:04:24.285Z,1021.23
2017-06-17T12:05:34.353Z,1021.22
2017-06-17T12:06:44.268Z,1021.26
2017-06-17T12:07:53.907Z,1021.29
2017-06-17T12:09:03.517Z,1021.28
2017-06-17T12:10:13.145Z,1021.28
2017-06-17T12:11:23.224Z,1021.24
2017-06-17T12:12:32.831Z,1021.28
2017-06-17T12:13:42.146Z,1021.28
2017-06-17T12:14:52.395Z,1021.25
2017-06-17T12:16:02.007Z,1021.3
2017-06-17T12:17:11.938Z,1021.28
2017-06-17T12:18:21.241Z,1021.36
2017-06-17T12:19:30.864Z,1021.31
2017-06-17T12:20:40.488Z,1021.33
2017-06-17T12:21:50.416Z,1021.33
2017-06-17T12:23:00.146Z,1021.32
2017-06-17T12:24:10.078Z,1021.32
2017-06-17T12:25:19.999Z,1021.28
2017-06-17T12:26:30.271Z,1021.36
2017-06-17T12:27:40.186Z,1021.32
2017-06-17T12:28:50.466Z,1021.36
2017-06-17T12:30:00.713Z,1021.32
2017-06-17T12:31:10.645Z,1021.33
2017-06-17T12:32:20.277Z,1021.31
2017-06-17T12:33:30.187Z,1021.31
2017-06-17T12:34:40.260Z,1021.3
2017-06-17T12:35:50.190Z,1021.3
2017-06-17T12:37:00.401Z,1021.3
2017-06-17T12:38:09.694Z,1021.3
2017-06-17T12:39:19.909Z,1021.32
2017-06-17T12:40:29.569Z,1021.34
2017-06-17T12:41:39.480Z,1021.37
2017-06-17T12:42:49.099Z,1021.35
2017-06-17T12:43:58.708Z,1021.36
2017-06-17T12:45:08.337Z,1021.37
2017-06-17T12:46:17.938Z,1021.35
2017-06-17T12:47:27.549Z,1021.41
2017-06-17T12:48:37.477Z,1021.37
2017-06-17T12:49:47.405Z,1021.37
2017-06-17T12:50:56.703Z,1021.38
2017-06-17T12:52:07.076Z,1021.41
2017-06-17T12:53:16.379Z,1021.44
2017-06-17T12:54:25.988Z,1021.47
2017-06-17T12:55:35.282Z,1021.44
2017-06-17T12:56:44.890Z,1021.47
2017-06-17T12:57:54.967Z,1021.43
2017-06-17T12:59:04.576Z,1021.46
2017-06-17T13:00:14.515Z,1021.46
2017-06-17T13:01:23.810Z,1021.49
2017-06-17T13:02:33.730Z,1021.5
2017-06-17T13:03:43.337Z,1021.5
2017-06-17T13:04:53.255Z,1021.51
2017-06-17T13:06:03.181Z,1021.48
2017-06-17T13:07:13.133Z,1021.46
2017-06-17T13:08:23.054Z,1021.48
2017-06-17T13:09:32.510Z,1021.47
2017-06-17T13:10:42.117Z,1021.46
2017-06-17T13:11:52.045Z,1021.47
2017-06-17T13:13:01.653Z,1021.44
2017-06-17T13:14:11.603Z,1021.44
2017-06-17T13:15:21.574Z,1021.5
2017-06-17T13:16:31.487Z,1021.46
2017-06-17T13:17:40.799Z,1021.5
2017-06-17T13:18:51.033Z,1021.52
2017-06-17T13:20:00.648Z,1021.47
2017-06-17T13:21:10.309Z,1021.47
2017-06-17T13:22:20.531Z,1021.45
2017-06-17T13:23:30.152Z,1021.44
2017-06-17T13:24:40.392Z,1021.39
2017-06-17T13:25:50.004Z,1021.43
2017-06-17T13:26:59.773Z,1021.41
2017-06-17T13:28:09.695Z,1021.38
2017-06-17T13:29:19.322Z,1021.44
2017-06-17T13:30:28.643Z,1021.4
2017-06-17T13:31:38.253Z,1021.39
2017-06-17T13:32:47.870Z,1021.4
2017-06-17T13:33:57.493Z,1021.37
2017-06-17T13:35:07.713Z,1021.34
2017-06-17T13:36:17.320Z,1021.34
2017-06-17T13:37:27.245Z,1021.32
2017-06-17T13:38:36.900Z,1021.32
2017-06-17T13:39:46.196Z,1021.35
2017-06-17T13:40:56.111Z,1021.35
2017-06-17T13:42:06.020Z,1021.36
2017-06-17T13:43:15.946Z,1021.35
2017-06-17T13:44:26.204Z,1021.35
2017-06-17T13:45:35.814Z,1021.38
2017-06-17T13:46:45.459Z,1021.37
2017-06-17T13:47:55.695Z,1021.33
2017-06-17T13:49:05.620Z,1021.36
2017-06-17T13:50:15.280Z,1021.31
2017-06-17T13:51:25.233Z,1021.31
2017-06-17T13:52:35.146Z,1021.31
2017-06-17T13:53:44.751Z,1021.29
2017-06-17T13:54:54.688Z,1021.35
2017-06-17T13:56:04.355Z,1021.33
2017-06-17T13:57:14.280Z,1021.3
2017-06-17T13:58:24.196Z,1021.35
2017-06-17T13:59:33.515Z,1021.34
2017-06-17T14:00:43.431Z,1021.33
2017-06-17T14:01:52.524Z,1021.3
2017-06-17T14:03:02.144Z,1021.29
2017-06-17T14:04:12.380Z,1021.3
2017-06-17T14:05:22.294Z,1021.31
2017-06-17T14:06:32.208Z,1021.31
2017-06-17T14:07:42.130Z,1021.35
2017-06-17T14:08:52.367Z,1021.3